Time,TemperatureF,DewpointF,PressureIn,WindDirection,WindDirectionDegrees,WindSpeedMPH,WindSpeedGustMPH,Humidity,HourlyPrecipIn,Conditions,Clouds,dailyrainin,SoftwareType,DateUTC
2013-02-12 00:02:00,70.0,62.4,29.87,SSE,158,4.0,6.5,77,0.00,,,0.00,WUHU216HW,2013-02-11 21:02:00,
2013-02-12 00:07:00,70.0,62.4,29.86,ESE,113,5.1,6.5,77,0.00,,,0.00,WUHU216HW,2013-02-11 21:07:00,
2013-02-12 00:12:00,70.0,62.4,29.86,SE,135,4.7,6.3,77,0.00,,,0.00,WUHU216HW,2013-02-11 21:12:00,
2013-02-12 00:17:00,70.0,62.4,29.86,SE,135,6.3,6.9,77,0.00,,,0.00,WUHU216HW,2013-02-11 21:17:00,
2013-02-12 00:22:00,69.8,62.2,29.86,SE,135,4.5,7.2,77,0.00,,,0.00,WUHU216HW,2013-02-11 21:22:00,
2013-02-12 00:27:00,69.8,62.2,29.86,SE,135,5.6,7.2,77,0.00,,,0.00,WUHU216HW,2013-02-11 21:27:00,
2013-02-12 00:32:00,69.8,62.2,29.86,SE,135,3.8,6.9,77,0.00,,,0.00,WUHU216HW,2013-02-11 21:32:00,
2013-02-12 00:37:00,69.8,62.2,29.85,ESE,113,5.8,6.9,77,0.00,,,0.00,WUHU216HW,2013-02-11 21:37:00,
2013-02-12 00:42:00,70.0,62.4,29.85,SE,135,5.1,9.4,77,0.00,,,0.00,WUHU216HW,2013-02-11 21:42:00,
2013-02-12 00:47:00,69.8,62.2,29.85,SE,135,4.7,9.4,77,0.00,,,0.00,WUHU216HW,2013-02-11 21:47:00,
2013-02-12 00:52:00,69.8,62.2,29.86,East,90,5.6,8.9,77,0.00,,,0.00,WUHU216HW,2013-02-11 21:52:00,
2013-02-12 00:57:00,69.8,61.8,29.85,ESE,113,5.6,7.8,76,0.00,,,0.00,WUHU216HW,2013-02-11 21:57:00,
2013-02-12 01:02:00,69.8,61.8,29.85,SE,135,6.5,7.8,76,0.00,,,0.00,WUHU216HW,2013-02-11 22:02:00,
2013-02-12 01:07:00,70.0,62.0,29.85,ESE,113,6.0,7.6,76,0.00,,,0.00,WUHU216HW,2013-02-11 22:07:00,
2013-02-12 01:12:00,70.0,62.0,29.85,SSE,158,5.1,7.6,76,0.00,,,0.00,WUHU216HW,2013-02-11 22:12:00,
2013-02-12 01:18:00,70.0,62.0,29.85,SE,135,5.8,7.6,76,0.00,,,0.00,WUHU216HW,2013-02-11 22:18:00,
2013-02-12 01:23:00,70.0,62.0,29.85,East,90,4.9,8.7,76,0.00,,,0.00,WUHU216HW,2013-02-11 22:23:00,
2013-02-12 01:28:00,69.8,62.2,29.85,ESE,113,6.3,8.7,77,0.00,,,0.00,WUHU216HW,2013-02-11 22:28:00,
2013-02-12 01:33:00,69.8,62.2,29.84,SE,135,5.6,8.5,77,0.00,,,0.00,WUHU216HW,2013-02-11 22:33:00,
2013-02-12 01:38:00,69.8,62.2,29.85,SSE,158,6.5,6.9,77,0.00,,,0.00,WUHU216HW,2013-02-11 22:38:00,
2013-02-12 01:43:00,69.8,62.2,29.84,SE,135,4.3,7.4,77,0.00,,,0.00,WUHU216HW,2013-02-11 22:43:00,
2013-02-12 01:48:00,69.8,62.2,29.85,SE,135,4.0,7.4,77,0.00,,,0.00,WUHU216HW,2013-02-11 22:48:00,
2013-02-12 01:53:00,69.7,62.1,29.84,SE,135,3.4,6.7,77,0.00,,,0.00,WUHU216HW,2013-02-11 22:53:00,
2013-02-12 01:58:00,69.7,62.1,29.84,SE,135,4.7,6.5,77,0.00,,,0.00,WUHU216HW,2013-02-11 22:58:00,
2013-02-12 02:03:00,69.7,62.1,29.84,SSE,158,3.1,6.3,77,0.00,,,0.00,WUHU216HW,2013-02-11 23:03:00,
2013-02-12 02:08:00,69.5,61.9,29.84,SSE,158,4.7,6.3,77,0.00,,,0.00,WUHU216HW,2013-02-11 23:08:00,
2013-02-12 02:13:00,69.5,61.9,29.84,SSE,158,4.0,6.3,77,0.00,,,0.00,WUHU216HW,2013-02-11 23:13:00,
2013-02-12 02:18:00,69.5,61.9,29.84,SE,135,4.3,6.3,77,0.00,,,0.00,WUHU216HW,2013-02-11 23:18:00,
2013-02-12 02:23:00,69.5,61.9,29.84,SE,135,2.5,5.6,77,0.00,,,0.00,WUHU216HW,2013-02-11 23:23:00,
2013-02-12 02:28:00,69.5,61.9,29.84,SE,135,4.0,6.0,77,0.00,,,0.00,WUHU216HW,2013-02-11 23:28:00,
2013-02-12 02:33:00,69.5,61.9,29.84,SE,135,5.6,6.0,77,0.00,,,0.00,WUHU216HW,2013-02-11 23:33:00,
2013-02-12 02:38:00,69.5,61.9,29.84,ESE,113,4.9,5.8,77,0.00,,,0.00,WUHU216HW,2013-02-11 23:38:00,
2013-02-12 02:43:00,69.3,61.7,29.84,ESE,113,4.9,5.6,77,0.00,,,0.00,WUHU216HW,2013-02-11 23:43:00,
2013-02-12 02:48:00,69.3,61.7,29.84,SSE,158,4.7,6.3,77,0.00,,,0.00,WUHU216HW,2013-02-11 23:48:00,
2013-02-12 02:53:00,69.3,61.7,29.84,SE,135,5.4,6.3,77,0.00,,,0.00,WUHU216HW,2013-02-11 23:53:00,
2013-02-12 02:58:00,69.3,61.7,29.84,ESE,113,3.8,6.7,77,0.00,,,0.00,WUHU216HW,2013-02-11 23:58:00,
2013-02-12 03:03:00,69.3,61.7,29.83,SE,135,5.6,6.9,77,0.00,,,0.00,WUHU216HW,2013-02-12 00:03:00,
2013-02-12 03:08:00,69.3,62.1,29.83,SSE,158,6.0,6.9,78,0.00,,,0.00,WUHU216HW,2013-02-12 00:08:00,
2013-02-12 03:13:00,69.3,62.1,29.83,SE,135,4.5,7.6,78,0.00,,,0.00,WUHU216HW,2013-02-12 00:13:00,
2013-02-12 03:18:00,69.3,62.1,29.83,ESE,113,5.4,7.6,78,0.00,,,0.00,WUHU216HW,2013-02-12 00:18:00,
2013-02-12 03:23:00,69.3,62.5,29.83,SE,135,6.9,7.6,79,0.00,,,0.00,WUHU216HW,2013-02-12 00:23:00,
2013-02-12 03:28:00,69.1,62.4,29.83,SE,135,6.5,7.6,79,0.00,,,0.00,WUHU216HW,2013-02-12 00:28:00,
2013-02-12 03:33:00,69.3,62.9,29.83,SE,135,6.9,7.6,80,0.00,,,0.00,WUHU216HW,2013-02-12 00:33:00,
2013-02-12 03:38:00,69.1,62.7,29.83,SE,135,6.7,8.3,80,0.00,,,0.00,WUHU216HW,2013-02-12 00:38:00,
2013-02-12 03:43:00,69.1,62.7,29.83,SSE,158,6.3,8.3,80,0.00,,,0.00,WUHU216HW,2013-02-12 00:43:00,
2013-02-12 03:48:00,69.1,62.7,29.83,SE,135,6.5,7.8,80,0.00,,,0.00,WUHU216HW,2013-02-12 00:48:00,
2013-02-12 03:53:00,69.1,62.7,29.82,SE,135,4.7,8.1,80,0.00,,,0.00,WUHU216HW,2013-02-12 00:53:00,
2013-02-12 03:58:00,69.1,62.7,29.82,SE,135,7.4,8.1,80,0.00,,,0.00,WUHU216HW,2013-02-12 00:58:00,
2013-02-12 04:03:00,68.9,62.6,29.83,ESE,113,6.3,7.6,80,0.00,,,0.00,WUHU216HW,2013-02-12 01:03:00,
2013-02-12 04:08:00,68.9,62.6,29.83,SSE,158,5.8,7.4,80,0.00,,,0.00,WUHU216HW,2013-02-12 01:08:00,
2013-02-12 04:13:00,68.9,62.6,29.83,SE,135,4.0,7.4,80,0.00,,,0.00,WUHU216HW,2013-02-12 01:13:00,
2013-02-12 04:18:00,68.8,62.4,29.83,SE,135,5.4,6.5,80,0.00,,,0.00,WUHU216HW,2013-02-12 01:18:00,
2013-02-12 04:23:00,68.8,62.4,29.83,SE,135,6.9,7.6,80,0.00,,,0.00,WUHU216HW,2013-02-12 01:23:00,
2013-02-12 04:28:00,68.8,62.7,29.83,ESE,113,6.9,9.2,81,0.00,,,0.00,WUHU216HW,2013-02-12 01:28:00,
2013-02-12 04:33:00,68.8,62.4,29.83,SSE,158,7.6,9.2,80,0.00,,,0.00,WUHU216HW,2013-02-12 01:33:00,
2013-02-12 04:38:00,68.8,62.7,29.83,SE,135,5.1,8.3,81,0.00,,,0.00,WUHU216HW,2013-02-12 01:38:00,
2013-02-12 04:43:00,68.8,62.7,29.83,SSE,158,5.4,6.9,81,0.00,,,0.00,WUHU216HW,2013-02-12 01:43:00,
2013-02-12 04:48:00,68.8,62.7,29.84,SSE,158,4.0,6.9,81,0.00,,,0.00,WUHU216HW,2013-02-12 01:48:00,
2013-02-12 04:53:00,68.8,62.7,29.84,SE,135,3.4,6.9,81,0.00,,,0.00,WUHU216HW,2013-02-12 01:53:00,
2013-02-12 04:58:00,68.6,62.6,29.84,SE,135,5.8,6.3,81,0.00,,,0.00,WUHU216HW,2013-02-12 01:58:00,
2013-02-12 05:03:00,68.6,62.6,29.84,SE,135,6.7,6.9,81,0.00,,,0.00,WUHU216HW,2013-02-12 02:03:00,
2013-02-12 05:08:00,68.6,62.6,29.84,SE,135,7.2,7.2,81,0.00,,,0.00,WUHU216HW,2013-02-12 02:08:00,
2013-02-12 05:13:00,68.6,62.6,29.84,ESE,113,4.3,7.2,81,0.00,,,0.00,WUHU216HW,2013-02-12 02:13:00,
2013-02-12 05:18:00,68.6,62.9,29.84,SE,135,7.4,7.4,82,0.00,,,0.00,WUHU216HW,2013-02-12 02:18:00,
2013-02-12 05:23:00,68.6,62.9,29.84,SE,135,5.4,8.1,82,0.00,,,0.00,WUHU216HW,2013-02-12 02:23:00,
2013-02-12 05:28:00,68.6,62.9,29.84,SSE,158,4.7,8.1,82,0.00,,,0.00,WUHU216HW,2013-02-12 02:28:00,
2013-02-12 05:33:00,68.6,62.9,29.85,SSE,158,5.4,7.6,82,0.00,,,0.00,WUHU216HW,2013-02-12 02:33:00,
2013-02-12 05:38:00,68.4,62.7,29.85,SSE,158,8.1,8.5,82,0.00,,,0.00,WUHU216HW,2013-02-12 02:38:00,
2013-02-12 05:43:00,68.4,62.7,29.85,SE,135,8.1,8.5,82,0.00,,,0.00,WUHU216HW,2013-02-12 02:43:00,
2013-02-12 05:48:00,68.4,62.7,29.86,ESE,113,6.5,8.1,82,0.00,,,0.00,WUHU216HW,2013-02-12 02:48:00,
2013-02-12 05:53:00,68.4,62.7,29.86,SSE,158,3.8,8.1,82,0.00,,,0.00,WUHU216HW,2013-02-12 02:53:00,
2013-02-12 05:58:00,68.6,62.9,29.86,SE,135,5.4,6.5,82,0.00,,,0.00,WUHU216HW,2013-02-12 02:58:00,
2013-02-12 06:03:00,68.6,62.9,29.86,SE,135,5.4,6.0,82,0.00,,,0.00,WUHU216HW,2013-02-12 03:03:00,
2013-02-12 06:08:00,68.6,63.2,29.86,SSE,158,3.6,5.8,83,0.00,,,0.00,WUHU216HW,2013-02-12 03:08:00,
2013-02-12 06:13:00,68.4,63.1,29.86,SSE,158,4.0,5.8,83,0.00,,,0.00,WUHU216HW,2013-02-12 03:13:00,
2013-02-12 06:18:00,68.6,63.2,29.86,SE,135,4.0,5.8,83,0.00,,,0.00,WUHU216HW,2013-02-12 03:18:00,
2013-02-12 06:23:00,68.6,63.2,29.87,SE,135,2.9,5.6,83,0.00,,,0.00,WUHU216HW,2013-02-12 03:23:00,
2013-02-12 06:28:00,68.6,63.2,29.87,SE,135,1.8,4.7,83,0.00,,,0.00,WUHU216HW,2013-02-12 03:28:00,
2013-02-12 06:33:00,68.4,63.1,29.87,SE,135,2.2,4.7,83,0.00,,,0.00,WUHU216HW,2013-02-12 03:33:00,
2013-02-12 06:38:00,68.6,63.2,29.87,SE,135,1.8,4.7,83,0.00,,,0.00,WUHU216HW,2013-02-12 03:38:00,
2013-02-12 06:43:00,68.6,63.2,29.87,SSE,158,2.2,4.3,83,0.00,,,0.00,WUHU216HW,2013-02-12 03:43:00,
2013-02-12 06:48:00,68.6,63.2,29.87,SE,135,2.5,4.7,83,0.00,,,0.00,WUHU216HW,2013-02-12 03:48:00,
2013-02-12 06:53:00,68.8,63.4,29.87,SSW,203,4.5,4.7,83,0.00,,,0.00,WUHU216HW,2013-02-12 03:53:00,
2013-02-12 06:58:00,68.8,63.4,29.87,South,180,2.0,5.6,83,0.00,,,0.00,WUHU216HW,2013-02-12 03:58:00,
2013-02-12 07:03:00,68.8,63.4,29.87,SW,225,0.9,5.6,83,0.00,,,0.00,WUHU216HW,2013-02-12 04:03:00,
2013-02-12 07:09:00,68.9,63.5,29.87,ESE,113,2.0,5.4,83,0.00,,,0.00,WUHU216HW,2013-02-12 04:09:00,
2013-02-12 07:14:00,69.1,64.1,29.87,SE,135,3.4,5.4,84,0.00,,,0.00,WUHU216HW,2013-02-12 04:14:00,
2013-02-12 07:19:00,69.3,64.3,29.88,South,180,3.4,5.4,84,0.00,,,0.00,WUHU216HW,2013-02-12 04:19:00,
2013-02-12 07:24:00,69.5,64.1,29.88,SE,135,4.3,5.4,83,0.00,,,0.00,WUHU216HW,2013-02-12 04:24:00,
2013-02-12 07:29:00,69.7,64.3,29.88,SE,135,5.4,5.4,83,0.00,,,0.00,WUHU216HW,2013-02-12 04:29:00,
2013-02-12 07:34:00,69.8,64.1,29.89,ESE,113,2.9,5.8,82,0.00,,,0.00,WUHU216HW,2013-02-12 04:34:00,
2013-02-12 07:39:00,70.2,64.5,29.89,SE,135,6.0,6.0,82,0.00,,,0.00,WUHU216HW,2013-02-12 04:39:00,
2013-02-12 07:44:00,70.4,64.6,29.89,SE,135,5.1,7.6,82,0.00,,,0.00,WUHU216HW,2013-02-12 04:44:00,
2013-02-12 07:49:00,70.6,64.5,29.89,SSE,158,5.4,7.8,81,0.00,,,0.00,WUHU216HW,2013-02-12 04:49:00,
2013-02-12 07:54:00,70.6,64.1,29.89,SE,135,6.3,8.5,80,0.00,,,0.00,WUHU216HW,2013-02-12 04:54:00,
2013-02-12 07:59:00,70.9,64.1,29.89,SSE,158,7.6,9.8,79,0.00,,,0.00,WUHU216HW,2013-02-12 04:59:00,
2013-02-12 08:00:00,70.9,64.1,29.89,ESE,113,6.9,9.8,79,0.00,,,0.00,WUHU216HW,2013-02-12 05:00:00,
2013-02-12 08:05:00,71.1,63.9,29.90,ESE,113,6.0,9.8,78,0.00,,,0.00,WUHU216HW,2013-02-12 05:05:00,
2013-02-12 08:10:00,71.3,63.6,29.90,SE,135,5.8,11.4,77,0.00,,,0.00,WUHU216HW,2013-02-12 05:10:00,
2013-02-12 08:15:00,71.3,63.6,29.90,SE,135,6.0,12.8,77,0.00,,,0.00,WUHU216HW,2013-02-12 05:15:00,
2013-02-12 08:20:00,71.6,64.0,29.90,SE,135,5.8,12.8,77,0.00,,,0.00,WUHU216HW,2013-02-12 05:20:00,
2013-02-12 08:25:00,71.8,64.2,29.90,ESE,113,7.2,10.5,77,0.00,,,0.00,WUHU216HW,2013-02-12 05:25:00,
2013-02-12 08:30:00,71.6,64.0,29.90,SE,135,9.2,11.0,77,0.00,,,0.00,WUHU216HW,2013-02-12 05:30:00,
2013-02-12 08:35:00,71.8,64.2,29.90,SE,135,10.5,11.0,77,0.00,,,0.00,WUHU216HW,2013-02-12 05:35:00,
2013-02-12 08:40:00,71.8,64.2,29.90,SSE,158,10.7,11.9,77,0.00,,,0.00,WUHU216HW,2013-02-12 05:40:00,
2013-02-12 08:45:00,72.0,64.4,29.90,South,180,9.6,11.9,77,0.00,,,0.00,WUHU216HW,2013-02-12 05:45:00,
2013-02-12 08:50:00,72.0,64.4,29.91,SSE,158,10.5,12.5,77,0.00,,,0.00,WUHU216HW,2013-02-12 05:50:00,
2013-02-12 08:55:00,72.0,64.4,29.91,ESE,113,9.4,12.5,77,0.00,,,0.00,WUHU216HW,2013-02-12 05:55:00,
2013-02-12 09:00:00,72.2,64.5,29.91,SSE,158,5.4,10.5,77,0.00,,,0.00,WUHU216HW,2013-02-12 06:00:00,
2013-02-12 09:05:00,72.5,65.4,29.91,ESE,113,6.7,10.1,78,0.00,,,0.00,WUHU216HW,2013-02-12 06:05:00,
2013-02-12 09:10:00,72.7,65.1,29.91,SE,135,5.4,10.5,77,0.00,,,0.00,WUHU216HW,2013-02-12 06:10:00,
2013-02-12 09:15:00,72.7,65.1,29.91,ESE,113,6.9,10.5,77,0.00,,,0.00,WUHU216HW,2013-02-12 06:15:00,
2013-02-12 09:20:00,72.9,64.9,29.91,SE,135,7.4,10.3,76,0.00,,,0.00,WUHU216HW,2013-02-12 06:20:00,
2013-02-12 09:25:00,72.7,64.7,29.91,SE,135,4.5,10.3,76,0.00,,,0.00,WUHU216HW,2013-02-12 06:25:00,
2013-02-12 09:30:00,73.1,65.1,29.91,SE,135,7.4,9.8,76,0.00,,,0.00,WUHU216HW,2013-02-12 06:30:00,
2013-02-12 09:35:00,73.1,65.1,29.91,SE,135,5.4,13.0,76,0.00,,,0.00,WUHU216HW,2013-02-12 06:35:00,
2013-02-12 09:40:00,73.1,64.7,29.91,SSW,203,8.3,13.0,75,0.00,,,0.00,WUHU216HW,2013-02-12 06:40:00,
2013-02-12 09:45:00,73.3,64.5,29.91,SE,135,9.4,11.2,74,0.00,,,0.00,WUHU216HW,2013-02-12 06:45:00,
2013-02-12 09:50:00,73.6,64.9,29.92,SSE,158,6.3,10.7,74,0.00,,,0.00,WUHU216HW,2013-02-12 06:50:00,
2013-02-12 09:55:00,73.6,64.1,29.92,SSE,158,8.9,12.3,72,0.00,,,0.00,WUHU216HW,2013-02-12 06:55:00,
2013-02-12 10:00:00,73.4,63.5,29.92,SSE,158,9.2,12.3,71,0.00,,,0.00,WUHU216HW,2013-02-12 07:00:00,
2013-02-12 10:05:00,73.8,63.9,29.92,SSE,158,5.4,12.1,71,0.00,,,0.00,WUHU216HW,2013-02-12 07:05:00,
2013-02-12 10:10:00,74.0,63.2,29.92,SE,135,4.9,10.5,69,0.00,,,0.00,WUHU216HW,2013-02-12 07:10:00,
2013-02-12 10:15:00,73.8,62.2,29.91,SE,135,14.8,14.8,67,0.00,,,0.00,WUHU216HW,2013-02-12 07:15:00,
2013-02-12 10:20:00,73.6,61.6,29.91,South,180,7.4,15.0,66,0.00,,,0.00,WUHU216HW,2013-02-12 07:20:00,
2013-02-12 10:25:00,73.8,61.8,29.92,SE,135,6.9,15.0,66,0.00,,,0.00,WUHU216HW,2013-02-12 07:25:00,
2013-02-12 10:30:00,74.0,61.9,29.92,SE,135,11.4,12.5,66,0.00,,,0.00,WUHU216HW,2013-02-12 07:30:00,
2013-02-12 10:35:00,74.2,62.1,29.92,SSE,158,6.3,12.5,66,0.00,,,0.00,WUHU216HW,2013-02-12 07:35:00,
2013-02-12 10:40:00,74.2,62.1,29.92,SE,135,5.4,13.6,66,0.00,,,0.00,WUHU216HW,2013-02-12 07:40:00,
2013-02-12 10:45:00,74.2,62.1,29.91,SSW,203,4.9,13.6,66,0.00,,,0.00,WUHU216HW,2013-02-12 07:45:00,
2013-02-12 10:50:00,74.5,62.4,29.91,ESE,113,4.9,9.4,66,0.00,,,0.00,WUHU216HW,2013-02-12 07:50:00,
2013-02-12 10:55:00,74.5,61.1,29.91,SE,135,4.0,8.7,63,0.00,,,0.00,WUHU216HW,2013-02-12 07:55:00,
2013-02-12 11:00:00,74.9,61.5,29.91,ESE,113,4.3,10.7,63,0.00,,,0.00,WUHU216HW,2013-02-12 08:00:00,
2013-02-12 11:05:00,74.9,61.0,29.91,SE,135,8.3,10.7,62,0.00,,,0.00,WUHU216HW,2013-02-12 08:05:00,
2013-02-12 11:10:00,74.7,60.4,29.91,SE,135,8.3,12.1,61,0.00,,,0.00,WUHU216HW,2013-02-12 08:10:00,
2013-02-12 11:15:00,74.5,60.7,29.91,SE,135,8.7,12.1,62,0.00,,,0.00,WUHU216HW,2013-02-12 08:15:00,
2013-02-12 11:20:00,74.7,60.9,29.90,SE,135,7.2,11.2,62,0.00,,,0.00,WUHU216HW,2013-02-12 08:20:00,
2013-02-12 11:25:00,74.9,60.1,29.90,SE,135,8.3,9.2,60,0.00,,,0.00,WUHU216HW,2013-02-12 08:25:00,
2013-02-12 11:30:00,74.9,60.6,29.90,East,90,4.7,11.0,61,0.00,,,0.00,WUHU216HW,2013-02-12 08:30:00,
2013-02-12 11:35:00,75.2,60.9,29.89,ESE,113,3.4,11.0,61,0.00,,,0.00,WUHU216HW,2013-02-12 08:35:00,
2013-02-12 11:40:00,75.2,62.2,29.89,NE,45,4.3,9.4,64,0.00,,,0.00,WUHU216HW,2013-02-12 08:40:00,
2013-02-12 11:45:00,75.2,62.2,29.89,ESE,113,4.7,7.6,64,0.00,,,0.00,WUHU216HW,2013-02-12 08:45:00,
2013-02-12 11:50:00,75.2,62.2,29.89,SE,135,9.2,9.2,64,0.00,,,0.00,WUHU216HW,2013-02-12 08:50:00,
2013-02-12 11:55:00,75.1,62.5,29.89,SSE,158,5.8,9.2,65,0.00,,,0.00,WUHU216HW,2013-02-12 08:55:00,
2013-02-12 12:00:00,74.9,62.7,29.89,SE,135,5.6,9.2,66,0.00,,,0.00,WUHU216HW,2013-02-12 09:00:00,
2013-02-12 12:05:00,74.9,63.2,29.89,ESE,113,7.8,8.3,67,0.00,,,0.00,WUHU216HW,2013-02-12 09:05:00,
2013-02-12 12:10:00,74.5,63.3,29.89,NE,45,6.0,8.5,68,0.00,,,0.00,WUHU216HW,2013-02-12 09:10:00,
2013-02-12 12:15:00,74.2,63.8,29.89,East,90,8.1,8.5,70,0.00,,,0.00,WUHU216HW,2013-02-12 09:15:00,
2013-02-12 12:20:00,74.2,63.8,29.89,ESE,113,6.9,8.3,70,0.00,,,0.00,WUHU216HW,2013-02-12 09:20:00,
2013-02-12 12:25:00,74.0,63.6,29.89,East,90,6.9,8.1,70,0.00,,,0.00,WUHU216HW,2013-02-12 09:25:00,
2013-02-12 12:33:00,74.3,64.0,29.89,East,90,6.7,7.8,70,0.00,,,0.00,WUHU216HW,2013-02-12 09:33:00,
2013-02-12 12:38:00,74.7,63.9,29.89,ENE,68,3.4,8.3,69,0.00,,,0.00,WUHU216HW,2013-02-12 09:38:00,
2013-02-12 12:43:00,74.9,63.6,29.89,East,90,7.6,8.5,68,0.00,,,0.00,WUHU216HW,2013-02-12 09:43:00,
2013-02-12 12:48:00,74.9,63.2,29.88,ESE,113,5.4,8.5,67,0.00,,,0.00,WUHU216HW,2013-02-12 09:48:00,
2013-02-12 12:53:00,74.9,63.2,29.88,NE,45,5.1,8.9,67,0.00,,,0.00,WUHU216HW,2013-02-12 09:53:00,
2013-02-12 12:58:00,74.9,63.2,29.88,ENE,68,6.7,8.9,67,0.00,,,0.00,WUHU216HW,2013-02-12 09:58:00,
2013-02-12 13:03:00,75.1,63.4,29.88,NE,45,6.0,9.2,67,0.00,,,0.00,WUHU216HW,2013-02-12 10:03:00,
2013-02-12 13:08:00,75.2,63.9,29.87,East,90,8.5,9.2,68,0.00,,,0.00,WUHU216HW,2013-02-12 10:08:00,
2013-02-12 13:13:00,75.2,63.9,29.87,ENE,68,8.3,9.2,68,0.00,,,0.00,WUHU216HW,2013-02-12 10:13:00,
2013-02-12 13:18:00,75.1,64.2,29.87,ENE,68,8.5,9.8,69,0.00,,,0.00,WUHU216HW,2013-02-12 10:18:00,
2013-02-12 13:23:00,75.1,64.6,29.87,ENE,68,4.9,10.3,70,0.00,,,0.00,WUHU216HW,2013-02-12 10:23:00,
2013-02-12 13:28:00,75.1,64.6,29.87,East,90,9.6,10.3,70,0.00,,,0.00,WUHU216HW,2013-02-12 10:28:00,
2013-02-12 13:33:00,75.4,64.1,29.87,ENE,68,8.5,10.1,68,0.00,,,0.00,WUHU216HW,2013-02-12 10:33:00,
2013-02-12 13:38:00,75.2,63.9,29.87,East,90,8.7,11.0,68,0.00,,,0.00,WUHU216HW,2013-02-12 10:38:00,
2013-02-12 13:43:00,75.1,64.6,29.86,East,90,8.5,11.0,70,0.00,,,0.00,WUHU216HW,2013-02-12 10:43:00,
2013-02-12 13:48:00,74.9,64.9,29.86,ENE,68,6.9,9.8,71,0.00,,,0.00,WUHU216HW,2013-02-12 10:48:00,
2013-02-12 13:53:00,74.9,64.9,29.86,ENE,68,9.8,10.5,71,0.00,,,0.00,WUHU216HW,2013-02-12 10:53:00,
2013-02-12 13:58:00,74.7,64.7,29.86,ESE,113,10.5,10.5,71,0.00,,,0.00,WUHU216HW,2013-02-12 10:58:00,
2013-02-12 14:03:00,74.5,64.9,29.86,ESE,113,12.1,12.1,72,0.00,,,0.00,WUHU216HW,2013-02-12 11:03:00,
2013-02-12 14:08:00,74.3,64.8,29.86,ENE,68,7.6,12.1,72,0.00,,,0.00,WUHU216HW,2013-02-12 11:08:00,
2013-02-12 14:13:00,74.3,64.8,29.86,ENE,68,10.7,12.1,72,0.00,,,0.00,WUHU216HW,2013-02-12 11:13:00,
2013-02-12 14:18:00,74.5,64.9,29.86,East,90,6.0,11.9,72,0.00,,,0.00,WUHU216HW,2013-02-12 11:18:00,
2013-02-12 14:23:00,74.5,64.9,29.86,East,90,7.8,10.7,72,0.00,,,0.00,WUHU216HW,2013-02-12 11:23:00,
2013-02-12 14:28:00,74.9,65.3,29.86,East,90,6.3,9.8,72,0.00,,,0.00,WUHU216HW,2013-02-12 11:28:00,
2013-02-12 14:33:00,74.9,65.3,29.86,East,90,6.3,9.8,72,0.00,,,0.00,WUHU216HW,2013-02-12 11:33:00,
2013-02-12 14:38:00,75.2,65.2,29.86,ENE,68,11.0,11.0,71,0.00,,,0.00,WUHU216HW,2013-02-12 11:38:00,
2013-02-12 14:43:00,75.2,65.2,29.85,ESE,113,7.8,11.4,71,0.00,,,0.00,WUHU216HW,2013-02-12 11:43:00,
2013-02-12 14:48:00,75.6,65.5,29.85,ESE,113,8.7,12.1,71,0.00,,,0.00,WUHU216HW,2013-02-12 11:48:00,
2013-02-12 14:53:00,75.8,65.7,29.85,ENE,68,12.1,12.1,71,0.00,,,0.00,WUHU216HW,2013-02-12 11:53:00,
2013-02-12 14:58:00,75.6,65.5,29.85,East,90,7.4,12.1,71,0.00,,,0.00,WUHU216HW,2013-02-12 11:58:00,
2013-02-12 15:03:00,75.1,65.1,29.85,East,90,10.3,12.1,71,0.00,,,0.00,WUHU216HW,2013-02-12 12:03:00,
2013-02-12 15:08:00,74.9,65.3,29.85,ENE,68,8.7,11.4,72,0.00,,,0.00,WUHU216HW,2013-02-12 12:08:00,
2013-02-12 15:13:00,74.9,65.3,29.85,ESE,113,8.1,12.8,72,0.00,,,0.00,WUHU216HW,2013-02-12 12:13:00,
2013-02-12 15:18:00,74.7,65.5,29.85,ESE,113,10.5,12.8,73,0.00,,,0.00,WUHU216HW,2013-02-12 12:18:00,
2013-02-12 15:23:00,74.5,65.7,29.84,East,90,9.2,11.6,74,0.00,,,0.00,WUHU216HW,2013-02-12 12:23:00,
2013-02-12 15:28:00,74.2,65.8,29.84,NE,45,8.5,13.0,75,0.00,,,0.00,WUHU216HW,2013-02-12 12:28:00,
2013-02-12 15:33:00,74.0,66.0,29.84,ESE,113,8.9,13.0,76,0.00,,,0.00,WUHU216HW,2013-02-12 12:33:00,
2013-02-12 15:38:00,73.8,65.8,29.84,ENE,68,10.3,13.2,76,0.00,,,0.00,WUHU216HW,2013-02-12 12:38:00,
2013-02-12 15:43:00,73.6,65.6,29.84,ENE,68,9.8,13.2,76,0.00,,,0.00,WUHU216HW,2013-02-12 12:43:00,
2013-02-12 15:48:00,73.8,65.8,29.84,ESE,113,9.2,12.1,76,0.00,,,0.00,WUHU216HW,2013-02-12 12:48:00,
2013-02-12 15:53:00,73.6,66.0,29.84,ESE,113,8.5,11.4,77,0.00,,,0.00,WUHU216HW,2013-02-12 12:53:00,
2013-02-12 15:58:00,73.4,65.8,29.84,ENE,68,8.5,12.8,77,0.00,,,0.00,WUHU216HW,2013-02-12 12:58:00,
2013-02-12 16:03:00,73.3,66.1,29.85,ENE,68,6.9,12.8,78,0.00,,,0.00,WUHU216HW,2013-02-12 13:03:00,
2013-02-12 16:08:00,73.3,66.1,29.85,ESE,113,8.3,10.3,78,0.00,,,0.00,WUHU216HW,2013-02-12 13:08:00,
2013-02-12 16:13:00,73.4,66.3,29.85,East,90,8.1,10.1,78,0.00,,,0.00,WUHU216HW,2013-02-12 13:13:00,
2013-02-12 16:18:00,73.6,66.4,29.85,East,90,7.6,10.3,78,0.00,,,0.00,WUHU216HW,2013-02-12 13:18:00,
2013-02-12 16:23:00,73.4,66.3,29.85,ESE,113,8.5,10.3,78,0.00,,,0.00,WUHU216HW,2013-02-12 13:23:00,
2013-02-12 16:28:00,73.1,65.9,29.85,ENE,68,9.6,10.5,78,0.00,,,0.00,WUHU216HW,2013-02-12 13:28:00,
2013-02-12 16:33:00,72.7,65.9,29.86,East,90,8.5,10.5,79,0.00,,,0.00,WUHU216HW,2013-02-12 13:33:00,
2013-02-12 16:38:00,72.5,65.7,29.86,East,90,6.9,10.5,79,0.00,,,0.00,WUHU216HW,2013-02-12 13:38:00,
2013-02-12 16:43:00,72.4,65.5,29.86,ENE,68,6.7,10.1,79,0.00,,,0.00,WUHU216HW,2013-02-12 13:43:00,
2013-02-12 16:48:00,72.4,65.5,29.86,ESE,113,6.3,12.3,79,0.00,,,0.00,WUHU216HW,2013-02-12 13:48:00,
2013-02-12 16:53:00,72.4,65.5,29.85,East,90,9.8,13.4,79,0.00,,,0.00,WUHU216HW,2013-02-12 13:53:00,
2013-02-12 16:58:00,72.0,65.5,29.85,East,90,8.5,13.4,80,0.00,,,0.00,WUHU216HW,2013-02-12 13:58:00,
2013-02-12 17:03:00,71.8,65.3,29.85,ENE,68,8.5,12.5,80,0.00,,,0.00,WUHU216HW,2013-02-12 14:03:00,
2013-02-12 17:08:00,71.8,65.3,29.85,East,90,7.8,12.5,80,0.00,,,0.00,WUHU216HW,2013-02-12 14:08:00,
2013-02-12 17:13:00,71.8,65.3,29.85,ESE,113,7.6,11.4,80,0.00,,,0.00,WUHU216HW,2013-02-12 14:13:00,
2013-02-12 17:18:00,71.6,65.2,29.85,ENE,68,7.2,11.4,80,0.00,,,0.00,WUHU216HW,2013-02-12 14:18:00,
2013-02-12 17:23:00,71.6,65.2,29.85,East,90,7.4,11.4,80,0.00,,,0.00,WUHU216HW,2013-02-12 14:23:00,
2013-02-12 17:28:00,71.5,65.0,29.85,ESE,113,7.8,11.4,80,0.00,,,0.00,WUHU216HW,2013-02-12 14:28:00,
2013-02-12 17:33:00,71.5,65.0,29.85,East,90,6.7,10.1,80,0.00,,,0.00,WUHU216HW,2013-02-12 14:33:00,
2013-02-12 17:38:00,71.5,65.4,29.85,ESE,113,8.5,11.2,81,0.00,,,0.00,WUHU216HW,2013-02-12 14:38:00,
2013-02-12 17:43:00,71.3,65.2,29.85,ENE,68,6.7,11.2,81,0.00,,,0.00,WUHU216HW,2013-02-12 14:43:00,
2013-02-12 17:48:00,71.3,65.2,29.85,ENE,68,7.2,10.5,81,0.00,,,0.00,WUHU216HW,2013-02-12 14:48:00,
2013-02-12 17:53:00,71.3,65.2,29.85,East,90,7.8,10.5,81,0.00,,,0.00,WUHU216HW,2013-02-12 14:53:00,
2013-02-12 17:58:00,71.3,65.2,29.85,East,90,8.1,9.2,81,0.00,,,0.00,WUHU216HW,2013-02-12 14:58:00,
2013-02-12 18:03:00,71.1,65.0,29.85,ENE,68,10.1,10.1,81,0.00,,,0.00,WUHU216HW,2013-02-12 15:03:00,
2013-02-12 18:08:00,71.1,65.0,29.85,ENE,68,8.7,11.4,81,0.00,,,0.00,WUHU216HW,2013-02-12 15:08:00,
2013-02-12 18:13:00,70.9,64.8,29.85,East,90,11.2,11.4,81,0.00,,,0.00,WUHU216HW,2013-02-12 15:13:00,
2013-02-12 18:18:00,70.9,64.8,29.85,East,90,5.1,11.2,81,0.00,,,0.00,WUHU216HW,2013-02-12 15:18:00,
2013-02-12 18:23:00,70.9,64.8,29.86,ESE,113,5.4,11.2,81,0.00,,,0.00,WUHU216HW,2013-02-12 15:23:00,
2013-02-12 18:28:00,70.9,64.8,29.86,ENE,68,8.9,10.5,81,0.00,,,0.00,WUHU216HW,2013-02-12 15:28:00,
2013-02-12 18:33:00,70.9,64.8,29.86,ENE,68,8.9,11.6,81,0.00,,,0.00,WUHU216HW,2013-02-12 15:33:00,
2013-02-12 18:38:00,70.9,64.8,29.86,ESE,113,7.6,11.6,81,0.00,,,0.00,WUHU216HW,2013-02-12 15:38:00,
2013-02-12 18:43:00,70.9,64.8,29.86,ENE,68,8.5,10.1,81,0.00,,,0.00,WUHU216HW,2013-02-12 15:43:00,
2013-02-12 18:48:00,70.9,64.8,29.86,ENE,68,8.5,11.6,81,0.00,,,0.00,WUHU216HW,2013-02-12 15:48:00,
2013-02-12 18:53:00,70.9,64.4,29.86,East,90,8.1,11.6,80,0.00,,,0.00,WUHU216HW,2013-02-12 15:53:00,
2013-02-12 18:58:00,70.9,64.4,29.86,East,90,9.6,11.2,80,0.00,,,0.00,WUHU216HW,2013-02-12 15:58:00,
2013-02-12 19:03:00,70.9,64.8,29.87,East,90,7.4,11.2,81,0.00,,,0.00,WUHU216HW,2013-02-12 16:03:00,
2013-02-12 19:08:00,70.9,64.8,29.87,East,90,7.2,11.4,81,0.00,,,0.00,WUHU216HW,2013-02-12 16:08:00,
2013-02-12 19:13:00,70.9,64.8,29.87,ESE,113,9.6,11.4,81,0.00,,,0.00,WUHU216HW,2013-02-12 16:13:00,
2013-02-12 19:18:00,70.7,65.0,29.87,ESE,113,9.2,11.4,82,0.00,,,0.00,WUHU216HW,2013-02-12 16:18:00,
2013-02-12 19:23:00,70.7,65.0,29.88,East,90,8.5,10.7,82,0.00,,,0.00,WUHU216HW,2013-02-12 16:23:00,
2013-02-12 19:28:00,70.7,65.0,29.87,ESE,113,7.6,10.7,82,0.00,,,0.00,WUHU216HW,2013-02-12 16:28:00,
2013-02-12 19:33:00,70.7,65.0,29.87,East,90,8.1,10.5,82,0.00,,,0.00,WUHU216HW,2013-02-12 16:33:00,
2013-02-12 19:38:00,70.7,65.0,29.87,SE,135,7.6,10.1,82,0.00,,,0.00,WUHU216HW,2013-02-12 16:38:00,
2013-02-12 19:43:00,70.7,65.3,29.88,East,90,7.8,11.2,83,0.00,,,0.00,WUHU216HW,2013-02-12 16:43:00,
2013-02-12 19:48:00,70.6,65.1,29.87,SE,135,9.4,11.2,83,0.00,,,0.00,WUHU216HW,2013-02-12 16:48:00,
2013-02-12 19:53:00,70.6,65.1,29.88,East,90,7.6,9.4,83,0.00,,,0.00,WUHU216HW,2013-02-12 16:53:00,
2013-02-12 19:58:00,70.6,65.1,29.88,East,90,5.8,9.4,83,0.00,,,0.00,WUHU216HW,2013-02-12 16:58:00,
2013-02-12 20:03:00,70.6,65.1,29.87,SE,135,5.6,9.4,83,0.00,,,0.00,WUHU216HW,2013-02-12 17:03:00,
2013-02-12 20:08:00,70.6,65.1,29.88,East,90,5.6,9.2,83,0.00,,,0.00,WUHU216HW,2013-02-12 17:08:00,
2013-02-12 20:13:00,70.6,65.1,29.88,East,90,7.2,9.4,83,0.00,,,0.00,WUHU216HW,2013-02-12 17:13:00,
2013-02-12 20:18:00,70.6,65.1,29.88,ENE,68,8.5,9.4,83,0.00,,,0.00,WUHU216HW,2013-02-12 17:18:00,
2013-02-12 20:23:00,70.6,65.1,29.87,ENE,68,8.7,9.6,83,0.00,,,0.00,WUHU216HW,2013-02-12 17:23:00,
2013-02-12 20:28:00,70.6,65.1,29.87,East,90,6.3,9.6,83,0.00,,,0.00,WUHU216HW,2013-02-12 17:28:00,
2013-02-12 20:33:00,70.6,64.8,29.88,ENE,68,7.6,9.2,82,0.00,,,0.00,WUHU216HW,2013-02-12 17:33:00,
2013-02-12 20:38:00,70.6,64.8,29.88,ESE,113,5.4,8.5,82,0.00,,,0.00,WUHU216HW,2013-02-12 17:38:00,
2013-02-12 20:43:00,70.6,64.8,29.88,ENE,68,4.0,8.5,82,0.00,,,0.00,WUHU216HW,2013-02-12 17:43:00,
2013-02-12 20:48:00,70.6,64.8,29.88,East,90,5.6,8.5,82,0.00,,,0.00,WUHU216HW,2013-02-12 17:48:00,
2013-02-12 20:53:00,70.6,64.8,29.88,East,90,5.1,8.3,82,0.00,,,0.00,WUHU216HW,2013-02-12 17:53:00,
2013-02-12 20:58:00,70.4,64.6,29.88,East,90,7.4,8.3,82,0.00,,,0.00,WUHU216HW,2013-02-12 17:58:00,
2013-02-12 21:03:00,70.4,64.6,29.88,East,90,5.1,8.3,82,0.00,,,0.00,WUHU216HW,2013-02-12 18:03:00,
2013-02-12 21:08:00,70.4,64.6,29.88,East,90,4.7,7.6,82,0.00,,,0.00,WUHU216HW,2013-02-12 18:08:00,
2013-02-12 21:13:00,70.4,64.6,29.88,ENE,68,5.1,8.1,82,0.00,,,0.00,WUHU216HW,2013-02-12 18:13:00,
2013-02-12 21:18:00,70.4,64.9,29.88,ENE,68,4.7,8.1,83,0.00,,,0.00,WUHU216HW,2013-02-12 18:18:00,
2013-02-12 21:23:00,70.4,64.6,29.88,ENE,68,3.4,6.0,82,0.00,,,0.00,WUHU216HW,2013-02-12 18:23:00,
2013-02-12 21:28:00,70.2,64.7,29.88,East,90,7.8,7.8,83,0.00,,,0.00,WUHU216HW,2013-02-12 18:28:00,
2013-02-12 21:33:00,70.2,64.7,29.88,ESE,113,5.8,7.8,83,0.00,,,0.00,WUHU216HW,2013-02-12 18:33:00,
2013-02-12 21:38:00,70.2,64.7,29.88,East,90,5.6,6.9,83,0.00,,,0.00,WUHU216HW,2013-02-12 18:38:00,
2013-02-12 21:43:00,70.2,64.7,29.88,ESE,113,4.7,7.6,83,0.00,,,0.00,WUHU216HW,2013-02-12 18:43:00,
2013-02-12 21:48:00,70.2,64.7,29.88,SE,135,1.8,7.6,83,0.00,,,0.00,WUHU216HW,2013-02-12 18:48:00,
2013-02-12 21:53:00,70.2,64.7,29.88,ENE,68,6.0,6.0,83,0.00,,,0.00,WUHU216HW,2013-02-12 18:53:00,
2013-02-12 21:58:00,70.2,64.7,29.88,SE,135,4.3,6.0,83,0.00,,,0.00,WUHU216HW,2013-02-12 18:58:00,
2013-02-12 22:03:00,70.2,64.7,29.88,ESE,113,2.5,6.0,83,0.00,,,0.00,WUHU216HW,2013-02-12 19:03:00,
2013-02-12 22:08:00,70.2,64.7,29.88,ESE,113,2.7,4.3,83,0.00,,,0.00,WUHU216HW,2013-02-12 19:08:00,
2013-02-12 22:13:00,70.2,64.7,29.88,SSE,158,4.3,4.9,83,0.00,,,0.00,WUHU216HW,2013-02-12 19:13:00,
2013-02-12 22:18:00,70.2,64.7,29.88,SSE,158,4.7,6.0,83,0.00,,,0.00,WUHU216HW,2013-02-12 19:18:00,
2013-02-12 22:23:00,70.2,65.1,29.88,SE,135,3.1,6.3,84,0.00,,,0.00,WUHU216HW,2013-02-12 19:23:00,
2013-02-12 22:28:00,70.0,64.9,29.88,SE,135,4.9,6.3,84,0.00,,,0.00,WUHU216HW,2013-02-12 19:28:00,
2013-02-12 22:33:00,70.0,64.9,29.87,SE,135,3.4,6.0,84,0.00,,,0.00,WUHU216HW,2013-02-12 19:33:00,
2013-02-12 22:38:00,70.0,64.9,29.87,SSE,158,4.5,6.0,84,0.00,,,0.00,WUHU216HW,2013-02-12 19:38:00,
2013-02-12 22:43:00,70.0,64.9,29.88,SE,135,5.4,6.0,84,0.00,,,0.00,WUHU216HW,2013-02-12 19:43:00,
2013-02-12 22:48:00,69.8,64.7,29.87,SE,135,4.5,6.9,84,0.00,,,0.00,WUHU216HW,2013-02-12 19:48:00,
2013-02-12 22:53:00,69.8,64.7,29.87,SSE,158,4.0,6.9,84,0.00,,,0.00,WUHU216HW,2013-02-12 19:53:00,
2013-02-12 22:58:00,69.8,64.7,29.87,East,90,3.4,6.0,84,0.00,,,0.00,WUHU216HW,2013-02-12 19:58:00,
2013-02-12 23:03:00,69.8,64.7,29.87,ESE,113,4.7,6.0,84,0.00,,,0.00,WUHU216HW,2013-02-12 20:03:00,
2013-02-12 23:08:00,69.8,64.7,29.87,SE,135,6.3,6.5,84,0.00,,,0.00,WUHU216HW,2013-02-12 20:08:00,
2013-02-12 23:13:00,69.8,64.7,29.87,SE,135,3.6,7.6,84,0.00,,,0.00,WUHU216HW,2013-02-12 20:13:00,
2013-02-12 23:18:00,69.8,64.7,29.87,SE,135,4.0,7.6,84,0.00,,,0.00,WUHU216HW,2013-02-12 20:18:00,
2013-02-12 23:23:00,69.8,64.7,29.87,SE,135,4.0,6.9,84,0.00,,,0.00,WUHU216HW,2013-02-12 20:23:00,
2013-02-12 23:28:00,69.8,64.7,29.87,SE,135,4.9,7.6,84,0.00,,,0.00,WUHU216HW,2013-02-12 20:28:00,
2013-02-12 23:33:00,69.7,64.5,29.87,SE,135,4.7,7.6,84,0.00,,,0.00,WUHU216HW,2013-02-12 20:33:00,
2013-02-12 23:38:00,69.7,64.5,29.87,SE,135,5.8,7.4,84,0.00,,,0.00,WUHU216HW,2013-02-12 20:38:00,
2013-02-12 23:43:00,69.7,64.9,29.87,SE,135,4.0,6.7,85,0.00,,,0.00,WUHU216HW,2013-02-12 20:43:00,
2013-02-12 23:48:00,69.5,64.7,29.87,ESE,113,5.6,6.9,85,0.00,,,0.00,WUHU216HW,2013-02-12 20:48:00,
2013-02-12 23:53:00,69.7,64.9,29.87,SSE,158,5.4,7.4,85,0.00,,,0.00,WUHU216HW,2013-02-12 20:53:00,
2013-02-12 23:58:00,69.5,64.7,29.87,South,180,4.5,7.6,85,0.00,,,0.00,WUHU216HW,2013-02-12 20:58:00,